DUS weather

Düsseldorf Airport
Düsseldorf, North Rhine-Westphalia, Germany

Public forecast

Using degrees Celsius for public forecast. Weather courtesy of forecast.io.

Current aviation weather report (METAR) for Düsseldorf Airport

Retrieved 2020/07/02 20:20 UTC (38 minutes ago):

EDDL 022020Z 27004KT 9999 FEW020 FEW030CB 15/12 Q1014 RESHRA NOSIG

Aviation forecast (TAF) for Düsseldorf Airport

Retrieved 2020/07/02 18:28 UTC (3 hours ago):

TAF EDDL 021700Z 0218/0324 24007KT 9999 SCT030 PROB30 TEMPO 0219/0221 24015G25KT SHRA BKN030CB PROB30 TEMPO 0305/0307 BKN013 BECMG 0306/0309 24013KT TEMPO 0310/0316 25015G25KT BECMG 0317/0320 23008KT